Terminal Aerodrome Forecast
Issued by NWS

Home | Current Version | Previous Version | Text Only | Print | Product List | Glossary On
Versions: 1 2 3 4 5 6 7 8 9 10 11 12 13 14 15 16 17
094
FTUS41 KBGM 280555
TAFELM
TAF
KELM 280555Z 2806/2906 VRB03KT P6SM BKN250
      TEMPO 2808/2812 3SM BR SCT005
     FM281200 20008KT P6SM SCT050 BKN120
     FM281800 21010KT P6SM BKN050 PROB30 2821/2824 4SM TSRA BR
      OVC025CB
     FM290000 VRB03KT P6SM SCT040 BKN070=

USA.gov is the U.S. government's official web portal to all federal, state and local government web resources and services.